createdAt,value
2023-04-08T00:00:03.940Z,6.38
2023-04-08T00:02:30.780Z,13.45
2023-04-08T00:04:58.952Z,8.40
2023-04-08T00:07:25.888Z,7.18
2023-04-08T00:09:52.605Z,7.82
2023-04-08T00:12:19.682Z,7.60
2023-04-08T00:14:46.424Z,7.78
2023-04-08T00:17:13.300Z,7.32
2023-04-08T00:19:40.130Z,8.27
2023-04-08T00:22:08.210Z,9.10
2023-04-08T00:24:34.988Z,8.02
2023-04-08T00:27:01.693Z,8.65
2023-04-08T00:29:28.568Z,7.82
2023-04-08T00:31:55.283Z,9.45
2023-04-08T00:34:22.052Z,7.60
2023-04-08T00:36:48.755Z,8.35
2023-04-08T00:39:16.838Z,7.65
2023-04-08T00:41:43.506Z,9.10
2023-04-08T00:44:10.259Z,10.68
2023-04-08T00:46:39.514Z,8.60
2023-04-08T00:49:06.572Z,9.35
2023-04-08T00:51:34.123Z,6.85
2023-04-08T00:54:00.890Z,9.30
2023-04-08T00:56:29.130Z,9.68
2023-04-08T00:58:55.930Z,10.27
2023-04-08T01:01:30.316Z,13.48
2023-04-08T01:04:02.073Z,9.88
2023-04-08T01:06:33.762Z,7.70
2023-04-08T01:09:04.991Z,8.43
2023-04-08T01:11:34.614Z,7.88
2023-04-08T01:14:04.076Z,8.93
2023-04-08T01:16:30.789Z,9.07
2023-04-08T01:18:58.085Z,14.05
2023-04-08T01:21:26.913Z,10.55
2023-04-08T01:24:01.185Z,8.45
2023-04-08T01:26:29.826Z,9.90
2023-04-08T01:28:59.302Z,11.68
2023-04-08T01:31:26.951Z,9.73
2023-04-08T01:33:54.395Z,9.05
2023-04-08T01:36:23.210Z,8.68
2023-04-08T01:38:51.157Z,12.55
2023-04-08T01:41:19.450Z,11.15
2023-04-08T01:43:48.510Z,8.27
2023-04-08T01:46:15.708Z,9.85
2023-04-08T01:48:44.218Z,9.02
2023-04-08T01:51:12.253Z,10.07
2023-04-08T01:53:39.085Z,9.82
2023-04-08T01:56:09.192Z,12.05
2023-04-08T01:58:39.491Z,8.65
2023-04-08T02:01:11.703Z,8.70
2023-04-08T02:03:41.458Z,10.35
2023-04-08T02:06:08.479Z,9.80
2023-04-08T02:08:35.434Z,9.13
2023-04-08T02:11:02.415Z,10.43
2023-04-08T02:13:29.887Z,11.50
2023-04-08T02:16:03.186Z,10.63
2023-04-08T02:18:34.702Z,10.17
2023-04-08T02:21:08.604Z,9.90
2023-04-08T02:23:37.830Z,10.40
2023-04-08T02:26:08.273Z,11.65
2023-04-08T02:28:35.926Z,9.02
2023-04-08T02:31:03.723Z,11.85
2023-04-08T02:33:34.411Z,11.25
2023-04-08T02:36:03.153Z,11.55
2023-04-08T02:38:30.220Z,10.10
2023-04-08T02:40:57.357Z,10.45
2023-04-08T02:43:24.167Z,8.07
2023-04-08T02:45:50.964Z,9.45
2023-04-08T02:48:17.790Z,10.02
2023-04-08T02:50:46.170Z,12.93
2023-04-08T02:53:12.908Z,10.10
2023-04-08T02:55:39.770Z,8.75
2023-04-08T02:58:06.511Z,11.90
2023-04-08T03:00:33.295Z,11.07
2023-04-08T03:03:00.401Z,9.73
2023-04-08T03:05:27.357Z,11.82
2023-04-08T03:07:55.449Z,10.98
2023-04-08T03:10:22.205Z,12.45
2023-04-08T03:12:49.047Z,8.95
2023-04-08T03:15:15.819Z,9.35
2023-04-08T03:17:42.653Z,12.05
2023-04-08T03:20:10.453Z,11.25
2023-04-08T03:22:37.337Z,11.48
2023-04-08T03:25:06.528Z,10.15
2023-04-08T03:27:33.455Z,10.25
2023-04-08T03:30:00.238Z,12.15
2023-04-08T03:32:27.370Z,11.68
2023-04-08T03:34:54.283Z,13.98
2023-04-08T03:37:21.229Z,11.45
2023-04-08T03:39:47.982Z,10.48
2023-04-08T03:42:16.094Z,9.85
2023-04-08T03:44:42.886Z,13.13
2023-04-08T03:47:09.631Z,12.38
2023-04-08T03:49:36.467Z,13.85
2023-04-08T03:52:03.433Z,12.73
2023-04-08T03:54:30.241Z,11.77
2023-04-08T03:56:56.986Z,13.82
2023-04-08T03:59:25.208Z,13.85
2023-04-08T04:01:51.987Z,14.63
2023-04-08T04:04:18.935Z,13.00
2023-04-08T04:06:45.825Z,14.10
2023-04-08T04:09:12.541Z,13.13
2023-04-08T04:11:39.393Z,13.85
2023-04-08T04:14:06.156Z,12.73
2023-04-08T04:16:34.373Z,13.52
2023-04-08T04:19:01.200Z,13.90
2023-04-08T04:21:28.055Z,18.10
2023-04-08T04:23:54.787Z,14.48
2023-04-08T04:26:21.528Z,16.50
2023-04-08T04:28:48.812Z,15.32
2023-04-08T04:31:19.759Z,16.92
2023-04-08T04:33:48.334Z,17.95
2023-04-08T04:36:15.448Z,14.93
2023-04-08T04:38:42.336Z,14.75
2023-04-08T04:41:09.129Z,17.88
2023-04-08T04:43:36.038Z,14.02
2023-04-08T04:46:02.807Z,16.25
2023-04-08T04:48:29.712Z,14.93
2023-04-08T04:50:59.347Z,17.23
2023-04-08T04:53:26.098Z,17.83
2023-04-08T04:55:53.016Z,14.82
2023-04-08T04:58:19.776Z,14.68
2023-04-08T05:00:46.536Z,17.83
2023-04-08T05:03:13.833Z,16.25
2023-04-08T05:05:40.821Z,16.23
2023-04-08T05:08:09.024Z,14.85
2023-04-08T05:10:35.828Z,17.13
2023-04-08T05:13:02.697Z,16.25
2023-04-08T05:15:29.433Z,17.63
2023-04-08T05:17:56.233Z,15.90
2023-04-08T05:20:22.985Z,17.63
2023-04-08T05:22:49.810Z,17.63
2023-04-08T05:25:18.227Z,15.38
2023-04-08T05:27:45.078Z,20.15
2023-04-08T05:30:12.658Z,19.60
2023-04-08T05:32:39.378Z,21.73
2023-04-08T05:35:07.059Z,16.70
2023-04-08T05:37:33.807Z,21.52
2023-04-08T05:40:00.674Z,18.27
2023-04-08T05:42:28.784Z,19.17
2023-04-08T05:44:55.504Z,22.08
2023-04-08T05:47:22.269Z,19.15
2023-04-08T05:49:50.210Z,16.30
2023-04-08T05:52:17.939Z,19.80
2023-04-08T05:54:44.793Z,19.90
2023-04-08T05:57:11.647Z,17.40
2023-04-08T05:59:39.707Z,18.33
2023-04-08T06:02:06.528Z,20.05
2023-04-08T06:04:33.443Z,17.27
2023-04-08T06:07:00.357Z,19.55
2023-04-08T06:09:27.075Z,20.92
2023-04-08T06:11:54.177Z,19.52
2023-04-08T06:14:21.065Z,22.58
2023-04-08T06:16:49.187Z,18.58
2023-04-08T06:19:15.941Z,19.48
2023-04-08T06:21:42.702Z,19.77
2023-04-08T06:24:09.398Z,17.10
2023-04-08T06:26:36.258Z,17.67
2023-04-08T06:29:02.991Z,18.00
2023-04-08T06:31:29.744Z,20.00
2023-04-08T06:33:57.801Z,20.05
2023-04-08T06:36:24.539Z,17.85
2023-04-08T06:38:51.432Z,19.95
2023-04-08T06:41:18.373Z,19.92
2023-04-08T06:43:45.268Z,19.08
2023-04-08T06:46:12.069Z,18.48
2023-04-08T06:48:38.800Z,17.17
2023-04-08T06:51:06.874Z,22.23
2023-04-08T06:53:33.944Z,20.50
2023-04-08T06:56:00.792Z,23.48
2023-04-08T06:58:27.570Z,24.10
2023-04-08T07:00:54.657Z,18.90
2023-04-08T07:03:21.490Z,20.20
2023-04-08T07:05:48.389Z,20.00
2023-04-08T07:08:16.671Z,20.98
2023-04-08T07:10:43.629Z,19.02
2023-04-08T07:13:10.588Z,17.90
2023-04-08T07:15:37.401Z,17.73
2023-04-08T07:18:04.369Z,20.65
2023-04-08T07:20:32.207Z,20.13
2023-04-08T07:22:59.183Z,21.73
2023-04-08T07:25:27.282Z,20.67
2023-04-08T07:27:54.025Z,19.35
2023-04-08T07:30:20.977Z,18.83
2023-04-08T07:32:47.770Z,22.20
2023-04-08T07:35:14.547Z,20.48
2023-04-08T07:37:41.263Z,16.80
2023-04-08T07:40:09.278Z,19.80
2023-04-08T07:42:39.121Z,20.90
2023-04-08T07:45:08.533Z,20.50
2023-04-08T07:47:35.328Z,16.58
2023-04-08T07:50:02.068Z,16.83
2023-04-08T07:52:30.426Z,19.65
2023-04-08T07:54:57.225Z,17.25
2023-04-08T07:57:24.051Z,12.27
2023-04-08T07:59:52.159Z,13.75
2023-04-08T08:02:19.005Z,15.23
2023-04-08T08:04:45.988Z,14.95
2023-04-08T08:07:12.788Z,17.13
2023-04-08T08:09:39.513Z,15.73
2023-04-08T08:12:06.271Z,18.60
2023-04-08T08:14:33.119Z,15.00
2023-04-08T08:17:01.163Z,16.70
2023-04-08T08:19:27.932Z,21.13
2023-04-08T08:21:54.671Z,18.60
2023-04-08T08:24:21.407Z,18.17
2023-04-08T08:26:48.307Z,16.35
2023-04-08T08:29:15.317Z,20.40
2023-04-08T08:31:42.185Z,13.82
2023-04-08T08:34:10.332Z,17.00
2023-04-08T08:36:37.094Z,16.65
2023-04-08T08:39:03.917Z,18.05
2023-04-08T08:41:33.854Z,19.58
2023-04-08T08:44:00.737Z,16.70
2023-04-08T08:46:27.686Z,14.25
2023-04-08T08:48:54.482Z,14.85
2023-04-08T08:51:22.711Z,17.00
2023-04-08T08:53:49.492Z,17.63
2023-04-08T08:56:18.282Z,18.10
2023-04-08T08:58:45.833Z,14.20
2023-04-08T09:01:33.102Z,15.57
2023-04-08T09:04:14.254Z,14.23
2023-04-08T09:09:59.580Z,17.42
2023-04-08T09:12:27.394Z,15.52
2023-04-08T09:15:04.803Z,17.92
2023-04-08T09:17:32.499Z,17.23
2023-04-08T09:20:07.459Z,18.35
2023-04-08T09:22:34.205Z,15.25
2023-04-08T09:25:26.881Z,14.23
2023-04-08T09:27:53.797Z,15.90
2023-04-08T09:30:22.798Z,17.98
2023-04-08T09:32:50.118Z,17.10
2023-04-08T09:35:18.280Z,16.05
2023-04-08T09:37:45.133Z,17.95
2023-04-08T09:40:13.655Z,12.60
2023-04-08T09:42:45.422Z,18.52
2023-04-08T09:45:12.741Z,18.65
2023-04-08T09:47:50.871Z,15.75
2023-04-08T09:50:22.734Z,14.35
2023-04-08T09:52:57.106Z,15.73
2023-04-08T09:55:26.459Z,16.65
2023-04-08T09:58:01.348Z,21.75
2023-04-08T10:00:32.820Z,13.95
2023-04-08T10:03:09.689Z,14.75
2023-04-08T10:05:38.034Z,15.93
2023-04-08T10:08:06.568Z,15.95
2023-04-08T10:10:35.030Z,14.38
2023-04-08T10:13:03.514Z,18.38
2023-04-08T10:15:31.672Z,15.23
2023-04-08T10:18:31.576Z,18.35
2023-04-08T10:20:58.661Z,16.35
2023-04-08T10:23:55.400Z,17.60
2023-04-08T10:26:37.233Z,14.20
2023-04-08T10:29:43.500Z,13.43
2023-04-08T10:32:28.263Z,10.52
2023-04-08T10:34:55.105Z,14.40
2023-04-08T10:37:22.036Z,12.10
2023-04-08T10:39:54.593Z,14.90
2023-04-08T10:42:27.527Z,13.32
2023-04-08T10:44:54.404Z,14.07
2023-04-08T10:47:27.046Z,11.93
2023-04-08T10:49:53.897Z,14.57
2023-04-08T10:52:20.706Z,15.38
2023-04-08T10:54:47.633Z,13.00
2023-04-08T10:57:14.850Z,15.60
2023-04-08T10:59:41.603Z,18.70
2023-04-08T11:02:13.706Z,14.00
2023-04-08T11:04:43.371Z,15.15
2023-04-08T11:07:10.291Z,14.38
2023-04-08T11:09:37.828Z,14.65
2023-04-08T11:12:04.859Z,14.23
2023-04-08T11:14:31.690Z,15.30
2023-04-08T11:16:58.497Z,14.10
2023-04-08T11:19:25.317Z,16.35
2023-04-08T11:21:53.792Z,14.75
2023-04-08T11:24:21.693Z,13.25
2023-04-08T11:26:48.683Z,12.60
2023-04-08T11:29:15.758Z,10.82
2023-04-08T11:31:43.666Z,14.48
2023-04-08T11:34:10.597Z,14.27
2023-04-08T11:36:39.957Z,18.90
2023-04-08T11:39:11.252Z,18.33
2023-04-08T11:41:38.732Z,15.85
2023-04-08T11:44:05.760Z,15.60
2023-04-08T11:46:32.702Z,10.43
2023-04-08T11:49:08.894Z,9.93
2023-04-08T11:51:53.942Z,11.95
2023-04-08T11:54:28.007Z,10.27
2023-04-08T11:59:21.422Z,13.45
2023-04-08T12:01:48.338Z,17.90
2023-04-08T12:04:15.413Z,17.35
2023-04-08T12:06:42.313Z,11.55
2023-04-08T12:09:09.158Z,13.82
2023-04-08T12:11:37.244Z,12.40
2023-04-08T12:14:04.192Z,15.10
2023-04-08T12:16:31.004Z,9.93
2023-04-08T12:18:57.831Z,9.68
2023-04-08T12:21:24.598Z,14.95
2023-04-08T12:23:51.559Z,12.00
2023-04-08T12:26:18.700Z,12.23
2023-04-08T12:28:46.834Z,9.98
2023-04-08T12:31:13.645Z,11.38
2023-04-08T12:33:40.427Z,14.68
2023-04-08T12:36:07.606Z,7.85
2023-04-08T12:38:34.486Z,11.57
2023-04-08T12:41:01.538Z,10.95
2023-04-08T12:43:28.398Z,15.50
2023-04-08T12:45:56.472Z,10.20
2023-04-08T12:48:23.327Z,8.98
2023-04-08T12:50:50.033Z,11.98
2023-04-08T12:53:16.721Z,11.57
2023-04-08T12:55:44.615Z,16.52
2023-04-08T12:58:11.636Z,14.45
2023-04-08T13:00:38.373Z,11.95
2023-04-08T13:03:06.587Z,9.95
2023-04-08T13:08:07.959Z,10.07
2023-04-08T13:10:34.890Z,9.95
2023-04-08T13:13:01.660Z,9.32
2023-04-08T13:15:28.411Z,9.52
2023-04-08T13:17:55.323Z,10.00
2023-04-08T13:20:23.575Z,8.63
2023-04-08T13:22:50.341Z,10.48
2023-04-08T13:25:17.113Z,8.25
2023-04-08T13:27:45.744Z,12.40
2023-04-08T13:30:13.152Z,9.85
2023-04-08T13:32:39.947Z,10.38
2023-04-08T13:35:07.418Z,10.80
2023-04-08T13:37:35.654Z,10.15
2023-04-08T13:40:02.739Z,11.55
2023-04-08T13:42:29.538Z,11.07
2023-04-08T13:44:56.253Z,9.68
2023-04-08T13:47:23.150Z,12.95
2023-04-08T13:49:49.965Z,11.38
2023-04-08T13:52:16.670Z,14.80
2023-04-08T13:54:44.697Z,12.52
2023-04-08T13:57:11.472Z,11.23
2023-04-08T13:59:38.199Z,12.15
2023-04-08T14:02:05.029Z,11.00
2023-04-08T14:04:32.094Z,13.13
2023-04-08T14:06:58.800Z,11.55
2023-04-08T14:09:25.497Z,12.45
2023-04-08T14:11:53.651Z,13.30
2023-04-08T14:14:20.350Z,10.77
2023-04-08T14:16:47.104Z,13.68
2023-04-08T14:19:14.320Z,11.23
2023-04-08T14:21:41.041Z,14.57
2023-04-08T14:24:07.749Z,12.82
2023-04-08T14:26:34.453Z,11.05
2023-04-08T14:29:03.205Z,11.32
2023-04-08T14:31:30.029Z,15.27
2023-04-08T14:33:56.737Z,13.30
2023-04-08T14:36:23.563Z,12.63
2023-04-08T14:38:50.574Z,11.32
2023-04-08T14:41:17.639Z,18.05
2023-04-08T14:43:44.392Z,12.00
2023-04-08T14:46:12.661Z,13.95
2023-04-08T14:48:39.480Z,16.00
2023-04-08T14:51:06.567Z,17.17
2023-04-08T14:53:33.555Z,12.35
2023-04-08T14:56:00.357Z,15.18
2023-04-08T14:58:27.080Z,16.13
2023-04-08T15:00:53.990Z,11.60
2023-04-08T15:03:22.135Z,13.27
2023-04-08T15:05:48.936Z,11.20
2023-04-08T15:08:15.826Z,11.70
2023-04-08T15:10:42.768Z,13.60
2023-04-08T15:13:09.512Z,11.60
2023-04-08T15:15:36.348Z,10.45
2023-04-08T15:18:03.381Z,14.25
2023-04-08T15:20:31.543Z,13.52
2023-04-08T15:22:58.287Z,14.90
2023-04-08T15:25:25.161Z,13.82
2023-04-08T15:27:51.898Z,17.13
2023-04-08T15:30:18.697Z,15.80
2023-04-08T15:32:45.500Z,13.48
2023-04-08T15:35:12.247Z,19.73
2023-04-08T15:37:40.357Z,17.90
2023-04-08T15:40:08.517Z,14.07
2023-04-08T15:42:35.289Z,18.08
2023-04-08T15:45:03.257Z,17.58
2023-04-08T15:47:30.120Z,16.60
2023-04-08T15:49:56.937Z,17.25
2023-04-08T15:52:23.680Z,16.80
2023-04-08T15:54:51.823Z,15.60
2023-04-08T15:57:18.593Z,16.60
2023-04-08T15:59:45.325Z,17.95
2023-04-08T16:02:12.145Z,19.35
2023-04-08T16:04:39.042Z,22.52
2023-04-08T16:07:05.793Z,17.65
2023-04-08T16:09:32.545Z,19.10
2023-04-08T16:12:00.716Z,11.55
2023-04-08T16:14:27.467Z,11.95
2023-04-08T16:16:54.341Z,23.95
2023-04-08T16:19:21.177Z,17.25
2023-04-08T16:21:47.914Z,14.93
2023-04-08T16:24:14.710Z,15.85
2023-04-08T16:26:41.419Z,17.85
2023-04-08T16:29:09.474Z,19.92
2023-04-08T16:31:36.174Z,24.92
2023-04-08T16:34:03.142Z,20.92
2023-04-08T16:36:29.852Z,14.77
2023-04-08T16:38:56.538Z,14.88
2023-04-08T16:41:23.262Z,21.65
2023-04-08T16:43:51.075Z,16.05
2023-04-08T16:46:19.258Z,16.48
2023-04-08T16:48:45.956Z,35.63
2023-04-08T16:51:12.651Z,13.75
2023-04-08T16:53:39.379Z,27.55
2023-04-08T16:56:12.743Z,14.32
2023-04-08T16:58:39.458Z,24.75
2023-04-08T17:01:07.384Z,19.73
2023-04-08T17:03:35.893Z,17.50
2023-04-08T17:06:09.555Z,18.20
2023-04-08T17:08:36.392Z,29.48
2023-04-08T17:11:07.518Z,17.35
2023-04-08T17:13:34.210Z,24.17
2023-04-08T17:16:00.932Z,17.95
2023-04-08T17:18:27.637Z,17.80
2023-04-08T17:20:55.743Z,12.77
2023-04-08T17:23:22.451Z,12.90
2023-04-08T17:25:49.348Z,18.90
2023-04-08T17:28:16.085Z,20.55
2023-04-08T17:30:42.977Z,19.67
2023-04-08T17:33:09.694Z,17.00
2023-04-08T17:35:36.420Z,19.80
2023-04-08T17:38:04.457Z,17.73
2023-04-08T17:40:31.479Z,22.63
2023-04-08T17:42:58.161Z,15.80
2023-04-08T17:45:24.996Z,13.68
2023-04-08T17:47:51.740Z,12.77
2023-04-08T17:50:18.611Z,11.77
2023-04-08T17:52:45.788Z,16.70
2023-04-08T17:55:14.175Z,10.35
2023-04-08T17:57:40.937Z,10.02
2023-04-08T18:00:08.638Z,8.45
2023-04-08T18:02:35.717Z,9.93
2023-04-08T18:05:02.687Z,5.90
2023-04-08T18:07:29.605Z,9.65
2023-04-08T18:09:56.332Z,6.35
2023-04-08T18:12:24.432Z,10.82
2023-04-08T18:14:51.290Z,8.93
2023-04-08T18:17:18.047Z,8.27
2023-04-08T18:19:44.831Z,13.15
2023-04-08T18:22:11.567Z,11.07
2023-04-08T18:24:38.334Z,8.57
2023-04-08T18:27:05.210Z,7.88
2023-04-08T18:29:33.371Z,9.55
2023-04-08T18:32:00.226Z,8.13
2023-04-08T18:34:27.011Z,7.50
2023-04-08T18:36:53.772Z,13.98
2023-04-08T18:39:20.573Z,13.82
2023-04-08T18:41:47.460Z,9.90
2023-04-08T18:44:14.211Z,9.35
2023-04-08T18:46:42.540Z,9.35
2023-04-08T18:49:09.284Z,10.95
2023-04-08T18:51:36.131Z,8.98
2023-04-08T18:54:02.905Z,9.55
2023-04-08T18:56:29.636Z,15.68
2023-04-08T18:58:56.334Z,14.95
2023-04-08T19:01:23.075Z,18.88
2023-04-08T19:03:51.663Z,15.13
2023-04-08T19:06:18.725Z,6.95
2023-04-08T19:08:47.051Z,10.70
2023-04-08T19:11:14.913Z,9.98
2023-04-08T19:13:41.646Z,10.15
2023-04-08T19:16:08.396Z,7.85
2023-04-08T19:18:35.112Z,10.65
2023-04-08T19:21:03.180Z,8.98
2023-04-08T19:23:29.906Z,9.52
2023-04-08T19:25:56.640Z,10.15
2023-04-08T19:28:23.340Z,9.60
2023-04-08T19:30:51.057Z,10.70
2023-04-08T19:33:17.932Z,10.50
2023-04-08T19:35:44.687Z,12.32
2023-04-08T19:38:12.799Z,10.25
2023-04-08T19:40:39.567Z,10.35
2023-04-08T19:43:06.454Z,10.07
2023-04-08T19:45:34.347Z,8.60
2023-04-08T19:48:01.425Z,7.28
2023-04-08T19:50:28.229Z,13.45
2023-04-08T19:52:55.019Z,11.38
2023-04-08T19:55:23.434Z,8.30
2023-04-08T19:57:50.231Z,8.00
2023-04-08T20:00:16.989Z,9.93
2023-04-08T20:02:43.904Z,7.68
2023-04-08T20:05:10.838Z,8.35
2023-04-08T20:07:37.723Z,7.13
2023-04-08T20:10:04.989Z,6.35
2023-04-08T20:12:33.138Z,7.55
2023-04-08T20:14:59.890Z,6.28
2023-04-08T20:17:26.619Z,7.85
2023-04-08T20:19:53.449Z,7.97
2023-04-08T20:22:20.496Z,8.52
2023-04-08T20:24:47.626Z,7.97
2023-04-08T20:27:14.553Z,9.82
2023-04-08T20:29:42.710Z,10.40
2023-04-08T20:32:09.454Z,8.38
2023-04-08T20:34:36.259Z,10.52
2023-04-08T20:37:03.047Z,6.18
2023-04-08T20:39:29.792Z,9.18
2023-04-08T20:41:56.554Z,7.47
2023-04-08T20:44:23.419Z,7.35
2023-04-08T20:46:51.698Z,8.50
2023-04-08T20:49:19.001Z,8.60
2023-04-08T20:51:45.862Z,5.60
2023-04-08T20:54:12.689Z,7.22
2023-04-08T20:56:39.425Z,6.75
2023-04-08T20:59:06.178Z,7.20
2023-04-08T21:01:32.929Z,9.70
2023-04-08T21:04:01.030Z,6.80
2023-04-08T21:06:27.719Z,9.50
2023-04-08T21:08:54.677Z,8.95
2023-04-08T21:11:21.399Z,8.95
2023-04-08T21:13:49.035Z,8.73
2023-04-08T21:16:16.189Z,11.27
2023-04-08T21:18:42.916Z,10.52
2023-04-08T21:21:11.224Z,15.95
2023-04-08T21:23:37.993Z,10.07
2023-04-08T21:26:10.570Z,7.75
2023-04-08T21:28:37.341Z,6.40
2023-04-08T21:31:13.386Z,8.63
2023-04-08T21:33:40.449Z,9.45
2023-04-08T21:36:07.378Z,10.02
2023-04-08T21:38:35.652Z,9.55
2023-04-08T21:41:02.557Z,11.75
2023-04-08T21:43:29.319Z,8.60
2023-04-08T21:45:56.179Z,9.23
2023-04-08T21:48:23.000Z,11.32
2023-04-08T21:50:49.816Z,8.93
2023-04-08T21:53:16.585Z,11.93
2023-04-08T21:55:44.692Z,10.65
2023-04-08T21:58:11.430Z,12.77
2023-04-08T22:00:38.529Z,13.07
2023-04-08T22:03:05.507Z,11.82
2023-04-08T22:05:32.406Z,9.75
2023-04-08T22:07:59.101Z,8.57
2023-04-08T22:10:25.975Z,12.38
2023-04-08T22:12:54.042Z,7.47
2023-04-08T22:15:20.949Z,7.25
2023-04-08T22:17:47.707Z,7.65
2023-04-08T22:20:14.460Z,6.90
2023-04-08T22:22:41.225Z,7.22
2023-04-08T22:25:08.801Z,8.90
2023-04-08T22:27:35.651Z,8.95
2023-04-08T22:30:04.406Z,8.20
2023-04-08T22:32:31.206Z,7.05
2023-04-08T22:34:58.014Z,6.55
2023-04-08T22:37:24.903Z,7.65
2023-04-08T22:39:51.712Z,6.88
2023-04-08T22:42:18.514Z,7.28
2023-04-08T22:44:45.283Z,10.02
2023-04-08T22:47:13.399Z,10.18
2023-04-08T22:49:40.143Z,8.52
2023-04-08T22:52:06.908Z,10.40
2023-04-08T22:54:33.662Z,7.85
2023-04-08T22:57:00.433Z,11.00
2023-04-08T22:59:27.196Z,9.60
2023-04-08T23:01:54.161Z,13.43
2023-04-08T23:04:22.371Z,11.23
2023-04-08T23:06:49.103Z,10.35
2023-04-08T23:09:16.002Z,7.43
2023-04-08T23:11:42.757Z,7.25
2023-04-08T23:14:09.474Z,9.65
2023-04-08T23:16:36.311Z,7.20
2023-04-08T23:19:03.044Z,8.25
2023-04-08T23:21:31.149Z,7.75
2023-04-08T23:23:57.873Z,10.38
2023-04-08T23:26:24.653Z,9.27
2023-04-08T23:28:51.725Z,9.48
2023-04-08T23:31:18.672Z,11.10
2023-04-08T23:33:45.482Z,9.52
2023-04-08T23:36:12.887Z,8.88
2023-04-08T23:38:41.010Z,9.50
2023-04-08T23:41:07.990Z,10.52
2023-04-08T23:43:34.962Z,9.45
2023-04-08T23:46:01.693Z,10.93
2023-04-08T23:48:28.501Z,11.13
2023-04-08T23:50:55.739Z,13.68
2023-04-08T23:53:22.562Z,13.00
2023-04-08T23:55:50.623Z,12.65
2023-04-08T23:58:17.392Z,12.80
